Elkins-Randolph Co-Jennings Randolph Field
KEKN : now visible

Airfield :











YOU CAN JOIN US ON...

 
LOGIN :

Register | Disclaimer

   EN    FR    IT 

 









Legend :    VFR   Marginal VFR   IFR   Intensive IFR   Very Intensive IFR
Visi :
Ceiling :
>= 8 km
>= 3000ft
5 to 8 km
1000 to 3000 ft
1500m to 5 km
500 to 1000 ft
800 to 1500m
200 to 500 ft
< 800m
< 200 ft
Symbols :   Thunderstorms  Fog  Heavy snow  Heavy precipitations  Wind > 20 kt







- Airport Elevation : 1987 ft


KEKN - Elkins-Randolph Co-Jennings Randolph Field

CURRENT METAR :
  • 181059Z AUTO 00000KT 6SM BR SCT014 SCT019 BKN037 22/20 A3002 RMK AO2 T02220200 TSNO $

EXPIRED METARs :
  • 181051Z AUTO 00000KT 8SM FEW014 BKN019 BKN035 22/20 A3002 RMK AO2 RAB05E26 SLP153 P0000 T02220200 TSNO $
  • 180951Z AUTO 00000KT 10SM OVC026 23/20 A3001 RMK AO2 RAE01 SLP146 P0000 T02280200 TSNO $
  • 180903Z AUTO 29007KT 10SM FEW010 BKN015 OVC024 23/20 A3000 RMK AO2 RAE01 P0000 T02280200 TSNO $
  • 180851Z AUTO VRB03KT 2 1/2SM +RA FEW010 BKN015 OVC024 23/20 A3000 RMK AO2 RAB40 SLP143 P0005 60005 T02280200 53003 TSNO $

TAF KEKN
Valid from the 18 at 09:00 until the 19 at 06:00 UTC


180900Z 1809/1906 28004KT 4SM BR BKN015
FM181600 28004KT P6SM BKN012
FM181700 30005KT P6SM BKN040
KZDC FIR / North America



MET'MAP, your aeronautical weather chart ! - Copyright ORBIFLY December 2007 - Disclaimer

ORBIFLY MET'MAP TEAM :

Programming & Development : Alexandra Zaïnal
Concept & Development : Baudouin d'Aumeries
Co-Development & Prog : Marc-Olivier Méhu
Technical & hardware support : Manuel Goepfert

Contact : metmap@orbifly.com




SOURCES & CREDITS :

   NOAA       Earth
Advisory